sensor_id;sensor_type;location;lat;lon;timestamp;temperature;humidity
77056;SHT30;67471;44.918;8.614;2023-05-13T00:02:48;14.85;83.14
77056;SHT30;67471;44.918;8.614;2023-05-13T00:05:52;14.96;82.98
77056;SHT30;67471;44.918;8.614;2023-05-13T00:08:56;14.98;82.74
77056;SHT30;67471;44.918;8.614;2023-05-13T00:12:00;14.98;82.64
77056;SHT30;67471;44.918;8.614;2023-05-13T00:15:05;14.88;83.07
77056;SHT30;67471;44.918;8.614;2023-05-13T00:18:09;14.82;83.34
77056;SHT30;67471;44.918;8.614;2023-05-13T00:21:13;14.78;83.40
77056;SHT30;67471;44.918;8.614;2023-05-13T00:24:17;14.70;84.21
77056;SHT30;67471;44.918;8.614;2023-05-13T00:27:21;14.89;83.61
77056;SHT30;67471;44.918;8.614;2023-05-13T00:30:24;14.95;83.03
77056;SHT30;67471;44.918;8.614;2023-05-13T00:33:28;14.92;83.80
77056;SHT30;67471;44.918;8.614;2023-05-13T00:36:32;14.77;84.14
77056;SHT30;67471;44.918;8.614;2023-05-13T00:39:35;14.74;84.41
77056;SHT30;67471;44.918;8.614;2023-05-13T00:42:39;14.91;83.84
77056;SHT30;67471;44.918;8.614;2023-05-13T00:45:43;14.89;83.83
77056;SHT30;67471;44.918;8.614;2023-05-13T00:48:48;14.98;83.83
77056;SHT30;67471;44.918;8.614;2023-05-13T00:51:52;14.88;84.23
77056;SHT30;67471;44.918;8.614;2023-05-13T00:54:58;14.96;83.76
77056;SHT30;67471;44.918;8.614;2023-05-13T00:58:01;14.74;84.46
77056;SHT30;67471;44.918;8.614;2023-05-13T01:01:19;14.88;83.79
77056;SHT30;67471;44.918;8.614;2023-05-13T01:11:35;14.98;84.03
77056;SHT30;67471;44.918;8.614;2023-05-13T01:14:41;14.87;83.68
77056;SHT30;67471;44.918;8.614;2023-05-13T01:18:05;14.85;84.07
77056;SHT30;67471;44.918;8.614;2023-05-13T01:21:10;14.87;84.09
77056;SHT30;67471;44.918;8.614;2023-05-13T01:24:14;15.05;83.44
77056;SHT30;67471;44.918;8.614;2023-05-13T01:27:18;14.96;83.93
77056;SHT30;67471;44.918;8.614;2023-05-13T01:30:22;15.05;83.36
77056;SHT30;67471;44.918;8.614;2023-05-13T01:33:27;15.11;83.09
77056;SHT30;67471;44.918;8.614;2023-05-13T01:36:31;14.99;83.46
77056;SHT30;67471;44.918;8.614;2023-05-13T01:39:37;14.78;84.11
77056;SHT30;67471;44.918;8.614;2023-05-13T01:42:44;14.95;83.73
77056;SHT30;67471;44.918;8.614;2023-05-13T01:45:48;14.92;83.86
77056;SHT30;67471;44.918;8.614;2023-05-13T01:48:52;14.84;84.05
77056;SHT30;67471;44.918;8.614;2023-05-13T01:51:55;14.87;84.19
77056;SHT30;67471;44.918;8.614;2023-05-13T01:55:00;14.96;83.54
77056;SHT30;67471;44.918;8.614;2023-05-13T01:58:04;14.96;83.54
77056;SHT30;67471;44.918;8.614;2023-05-13T02:01:08;14.65;84.50
77056;SHT30;67471;44.918;8.614;2023-05-13T02:04:12;14.88;83.86
77056;SHT30;67471;44.918;8.614;2023-05-13T02:07:17;14.99;83.51
77056;SHT30;67471;44.918;8.614;2023-05-13T02:10:22;14.91;83.86
77056;SHT30;67471;44.918;8.614;2023-05-13T02:13:27;14.58;83.69
77056;SHT30;67471;44.918;8.614;2023-05-13T02:16:31;14.42;82.91
77056;SHT30;67471;44.918;8.614;2023-05-13T02:19:34;13.92;84.83
77056;SHT30;67471;44.918;8.614;2023-05-13T02:22:38;13.85;84.96
77056;SHT30;67471;44.918;8.614;2023-05-13T02:25:44;13.58;85.47
77056;SHT30;67471;44.918;8.614;2023-05-13T02:28:47;13.32;86.96
77056;SHT30;67471;44.918;8.614;2023-05-13T02:31:51;13.38;86.54
77056;SHT30;67471;44.918;8.614;2023-05-13T02:34:55;13.34;86.66
77056;SHT30;67471;44.918;8.614;2023-05-13T02:37:59;13.30;86.70
77056;SHT30;67471;44.918;8.614;2023-05-13T02:41:04;13.32;86.56
77056;SHT30;67471;44.918;8.614;2023-05-13T02:44:08;13.44;85.41
77056;SHT30;67471;44.918;8.614;2023-05-13T02:47:12;13.37;85.45
77056;SHT30;67471;44.918;8.614;2023-05-13T02:50:16;13.18;86.48
77056;SHT30;67471;44.918;8.614;2023-05-13T02:53:20;13.20;86.36
77056;SHT30;67471;44.918;8.614;2023-05-13T02:56:29;13.14;86.57
77056;SHT30;67471;44.918;8.614;2023-05-13T02:59:33;13.27;86.05
77056;SHT30;67471;44.918;8.614;2023-05-13T03:02:37;13.44;85.65
77056;SHT30;67471;44.918;8.614;2023-05-13T03:05:41;13.25;85.79
77056;SHT30;67471;44.918;8.614;2023-05-13T03:08:44;13.22;86.05
77056;SHT30;67471;44.918;8.614;2023-05-13T03:11:48;13.15;86.39
77056;SHT30;67471;44.918;8.614;2023-05-13T03:14:52;13.08;86.77
77056;SHT30;67471;44.918;8.614;2023-05-13T03:17:56;13.20;86.56
77056;SHT30;67471;44.918;8.614;2023-05-13T03:21:00;13.22;86.34
77056;SHT30;67471;44.918;8.614;2023-05-13T03:24:05;12.99;87.47
77056;SHT30;67471;44.918;8.614;2023-05-13T03:27:09;12.86;88.13
77056;SHT30;67471;44.918;8.614;2023-05-13T03:30:15;12.96;87.92
77056;SHT30;67471;44.918;8.614;2023-05-13T03:33:28;12.97;87.66
77056;SHT30;67471;44.918;8.614;2023-05-13T03:36:32;12.84;87.93
77056;SHT30;67471;44.918;8.614;2023-05-13T03:39:37;13.00;87.75
77056;SHT30;67471;44.918;8.614;2023-05-13T03:42:41;12.97;87.91
77056;SHT30;67471;44.918;8.614;2023-05-13T03:45:44;13.06;87.44
77056;SHT30;67471;44.918;8.614;2023-05-13T03:48:53;13.10;87.31
77056;SHT30;67471;44.918;8.614;2023-05-13T03:51:58;12.91;87.60
77056;SHT30;67471;44.918;8.614;2023-05-13T03:55:02;13.10;87.14
77056;SHT30;67471;44.918;8.614;2023-05-13T03:58:11;13.03;87.77
77056;SHT30;67471;44.918;8.614;2023-05-13T04:01:16;12.94;87.71
77056;SHT30;67471;44.918;8.614;2023-05-13T04:04:20;12.94;87.89
77056;SHT30;67471;44.918;8.614;2023-05-13T04:07:24;12.80;88.53
77056;SHT30;67471;44.918;8.614;2023-05-13T04:10:29;13.00;87.98
77056;SHT30;67471;44.918;8.614;2023-05-13T04:13:34;13.03;87.51
77056;SHT30;67471;44.918;8.614;2023-05-13T04:16:38;12.94;87.92
77056;SHT30;67471;44.918;8.614;2023-05-13T04:19:42;12.94;87.71
77056;SHT30;67471;44.918;8.614;2023-05-13T04:22:47;13.12;86.98
77056;SHT30;67471;44.918;8.614;2023-05-13T04:25:51;12.99;87.08
77056;SHT30;67471;44.918;8.614;2023-05-13T04:28:55;12.90;87.40
77056;SHT30;67471;44.918;8.614;2023-05-13T04:31:59;12.87;87.35
77056;SHT30;67471;44.918;8.614;2023-05-13T04:35:05;13.06;86.70
77056;SHT30;67471;44.918;8.614;2023-05-13T04:38:10;13.07;86.67
77056;SHT30;67471;44.918;8.614;2023-05-13T04:41:15;13.28;85.67
77056;SHT30;67471;44.918;8.614;2023-05-13T04:44:21;13.30;85.88
77056;SHT30;67471;44.918;8.614;2023-05-13T04:47:25;13.32;85.72
77056;SHT30;67471;44.918;8.614;2023-05-13T04:50:29;13.63;84.97
77056;SHT30;67471;44.918;8.614;2023-05-13T04:53:33;13.82;83.79
77056;SHT30;67471;44.918;8.614;2023-05-13T04:56:40;13.66;83.88
77056;SHT30;67471;44.918;8.614;2023-05-13T04:59:44;13.63;83.77
77056;SHT30;67471;44.918;8.614;2023-05-13T05:02:49;13.54;84.10
77056;SHT30;67471;44.918;8.614;2023-05-13T05:05:52;13.65;84.19
77056;SHT30;67471;44.918;8.614;2023-05-13T05:08:57;13.78;84.39
77056;SHT30;67471;44.918;8.614;2023-05-13T05:12:02;13.80;83.80
77056;SHT30;67471;44.918;8.614;2023-05-13T05:15:09;13.93;83.29
77056;SHT30;67471;44.918;8.614;2023-05-13T05:18:18;14.13;83.21
77056;SHT30;67471;44.918;8.614;2023-05-13T05:21:25;13.82;83.23
77056;SHT30;67471;44.918;8.614;2023-05-13T05:24:29;13.54;84.93
77056;SHT30;67471;44.918;8.614;2023-05-13T05:27:32;13.58;84.93
77056;SHT30;67471;44.918;8.614;2023-05-13T05:30:37;13.85;83.61
77056;SHT30;67471;44.918;8.614;2023-05-13T05:33:49;13.73;83.72
77056;SHT30;67471;44.918;8.614;2023-05-13T05:36:53;13.78;83.59
77056;SHT30;67471;44.918;8.614;2023-05-13T05:39:58;13.58;84.48
77056;SHT30;67471;44.918;8.614;2023-05-13T05:43:03;14.02;83.08
77056;SHT30;67471;44.918;8.614;2023-05-13T05:46:07;13.85;83.64
77056;SHT30;67471;44.918;8.614;2023-05-13T05:49:12;13.49;84.99
77056;SHT30;67471;44.918;8.614;2023-05-13T05:52:18;13.40;85.67
77056;SHT30;67471;44.918;8.614;2023-05-13T05:55:22;13.47;85.46
77056;SHT30;67471;44.918;8.614;2023-05-13T05:58:26;13.69;84.75
77056;SHT30;67471;44.918;8.614;2023-05-13T06:01:29;13.90;84.13
77056;SHT30;67471;44.918;8.614;2023-05-13T06:04:39;14.06;83.38
77056;SHT30;67471;44.918;8.614;2023-05-13T06:07:44;14.23;82.42
77056;SHT30;67471;44.918;8.614;2023-05-13T06:10:48;14.06;82.48
77056;SHT30;67471;44.918;8.614;2023-05-13T06:13:52;13.65;84.02
77056;SHT30;67471;44.918;8.614;2023-05-13T06:16:56;13.76;83.28
77056;SHT30;67471;44.918;8.614;2023-05-13T06:20:00;13.82;83.47
77056;SHT30;67471;44.918;8.614;2023-05-13T06:23:04;14.02;83.71
77056;SHT30;67471;44.918;8.614;2023-05-13T06:26:11;14.19;82.51
77056;SHT30;67471;44.918;8.614;2023-05-13T06:29:15;14.05;82.42
77056;SHT30;67471;44.918;8.614;2023-05-13T06:32:22;14.06;82.89
77056;SHT30;67471;44.918;8.614;2023-05-13T06:35:26;13.80;83.22
77056;SHT30;67471;44.918;8.614;2023-05-13T06:38:30;13.87;82.78
77056;SHT30;67471;44.918;8.614;2023-05-13T06:45:21;13.87;82.63
77056;SHT30;67471;44.918;8.614;2023-05-13T06:48:27;14.13;82.07
77056;SHT30;67471;44.918;8.614;2023-05-13T06:51:31;14.03;81.90
77056;SHT30;67471;44.918;8.614;2023-05-13T06:54:35;13.76;82.62
77056;SHT30;67471;44.918;8.614;2023-05-13T06:57:39;13.83;82.86
77056;SHT30;67471;44.918;8.614;2023-05-13T07:00:42;13.92;83.28
77056;SHT30;67471;44.918;8.614;2023-05-13T07:03:48;13.90;83.18
77056;SHT30;67471;44.918;8.614;2023-05-13T07:06:52;13.96;83.19
77056;SHT30;67471;44.918;8.614;2023-05-13T07:09:57;14.17;82.78
77056;SHT30;67471;44.918;8.614;2023-05-13T07:13:01;14.03;83.26
77056;SHT30;67471;44.918;8.614;2023-05-13T07:16:04;14.36;82.29
77056;SHT30;67471;44.918;8.614;2023-05-13T07:19:08;14.52;81.95
77056;SHT30;67471;44.918;8.614;2023-05-13T07:22:12;14.54;81.50
77056;SHT30;67471;44.918;8.614;2023-05-13T07:25:17;14.75;80.24
77056;SHT30;67471;44.918;8.614;2023-05-13T07:28:21;14.65;80.52
77056;SHT30;67471;44.918;8.614;2023-05-13T07:31:28;14.75;80.39
77056;SHT30;67471;44.918;8.614;2023-05-13T07:34:32;14.85;79.72
77056;SHT30;67471;44.918;8.614;2023-05-13T07:37:39;14.57;80.80
77056;SHT30;67471;44.918;8.614;2023-05-13T07:40:46;14.80;80.21
77056;SHT30;67471;44.918;8.614;2023-05-13T07:43:53;14.89;79.48
77056;SHT30;67471;44.918;8.614;2023-05-13T07:46:57;14.70;79.63
77056;SHT30;67471;44.918;8.614;2023-05-13T07:50:01;14.80;81.81
77056;SHT30;67471;44.918;8.614;2023-05-13T07:53:05;15.13;79.47
77056;SHT30;67471;44.918;8.614;2023-05-13T07:56:09;15.88;77.35
77056;SHT30;67471;44.918;8.614;2023-05-13T07:59:12;16.44;75.13
77056;SHT30;67471;44.918;8.614;2023-05-13T08:02:17;16.35;73.47
77056;SHT30;67471;44.918;8.614;2023-05-13T08:05:21;17.17;72.03
77056;SHT30;67471;44.918;8.614;2023-05-13T08:08:25;17.48;70.80
77056;SHT30;67471;44.918;8.614;2023-05-13T08:11:29;18.51;67.47
77056;SHT30;67471;44.918;8.614;2023-05-13T08:14:33;18.32;67.88
77056;SHT30;67471;44.918;8.614;2023-05-13T08:17:36;18.89;66.19
77056;SHT30;67471;44.918;8.614;2023-05-13T08:20:40;19.15;64.82
77056;SHT30;67471;44.918;8.614;2023-05-13T08:23:44;19.70;62.74
77056;SHT30;67471;44.918;8.614;2023-05-13T08:26:48;19.90;62.28
77056;SHT30;67471;44.918;8.614;2023-05-13T08:29:52;20.27;61.33
77056;SHT30;67471;44.918;8.614;2023-05-13T08:32:58;20.32;59.44
77056;SHT30;67471;44.918;8.614;2023-05-13T08:36:02;19.79;62.52
77056;SHT30;67471;44.918;8.614;2023-05-13T08:39:05;20.27;59.67
77056;SHT30;67471;44.918;8.614;2023-05-13T08:42:10;21.02;58.34
77056;SHT30;67471;44.918;8.614;2023-05-13T08:45:14;20.32;60.18
77056;SHT30;67471;44.918;8.614;2023-05-13T08:48:18;21.48;58.38
77056;SHT30;67471;44.918;8.614;2023-05-13T08:51:25;21.69;57.29
77056;SHT30;67471;44.918;8.614;2023-05-13T08:54:30;21.10;60.00
77056;SHT30;67471;44.918;8.614;2023-05-13T08:57:34;21.36;60.33
77056;SHT30;67471;44.918;8.614;2023-05-13T09:00:38;22.26;55.90
77056;SHT30;67471;44.918;8.614;2023-05-13T09:04:04;22.52;56.57
77056;SHT30;67471;44.918;8.614;2023-05-13T09:07:14;23.00;54.24
77056;SHT30;67471;44.918;8.614;2023-05-13T09:10:19;22.83;55.23
77056;SHT30;67471;44.918;8.614;2023-05-13T09:13:23;22.35;56.20
77056;SHT30;67471;44.918;8.614;2023-05-13T09:16:28;21.82;56.18
77056;SHT30;67471;44.918;8.614;2023-05-13T09:19:31;21.75;56.94
77056;SHT30;67471;44.918;8.614;2023-05-13T09:22:38;22.13;56.72
77056;SHT30;67471;44.918;8.614;2023-05-13T09:25:42;22.25;55.72
77056;SHT30;67471;44.918;8.614;2023-05-13T09:28:46;22.02;55.72
77056;SHT30;67471;44.918;8.614;2023-05-13T09:31:55;21.85;56.44
77056;SHT30;67471;44.918;8.614;2023-05-13T09:35:15;20.71;60.14
77056;SHT30;67471;44.918;8.614;2023-05-13T09:38:23;20.85;58.95
77056;SHT30;67471;44.918;8.614;2023-05-13T09:41:30;20.76;59.42
77056;SHT30;67471;44.918;8.614;2023-05-13T09:44:34;21.58;58.36
77056;SHT30;67471;44.918;8.614;2023-05-13T09:47:39;21.74;56.98
77056;SHT30;67471;44.918;8.614;2023-05-13T09:50:47;22.08;56.17
77056;SHT30;67471;44.918;8.614;2023-05-13T09:53:53;22.25;54.38
77056;SHT30;67471;44.918;8.614;2023-05-13T09:57:05;22.47;53.77
77056;SHT30;67471;44.918;8.614;2023-05-13T10:00:08;22.73;53.77
77056;SHT30;67471;44.918;8.614;2023-05-13T10:03:15;22.22;54.79
77056;SHT30;67471;44.918;8.614;2023-05-13T10:06:21;21.94;55.82
77056;SHT30;67471;44.918;8.614;2023-05-13T10:09:28;22.18;55.22
77056;SHT30;67471;44.918;8.614;2023-05-13T10:12:34;22.29;54.45
77056;SHT30;67471;44.918;8.614;2023-05-13T10:15:52;22.39;53.90
77056;SHT30;67471;44.918;8.614;2023-05-13T10:18:56;22.08;55.17
77056;SHT30;67471;44.918;8.614;2023-05-13T10:22:01;21.99;54.90
77056;SHT30;67471;44.918;8.614;2023-05-13T10:25:08;22.02;54.01
77056;SHT30;67471;44.918;8.614;2023-05-13T10:28:13;21.85;53.66
77056;SHT30;67471;44.918;8.614;2023-05-13T10:31:19;21.87;53.23
77056;SHT30;67471;44.918;8.614;2023-05-13T10:34:24;21.67;52.75
77056;SHT30;67471;44.918;8.614;2023-05-13T10:44:11;21.22;54.87
77056;SHT30;67471;44.918;8.614;2023-05-13T10:47:15;21.11;54.99
77056;SHT30;67471;44.918;8.614;2023-05-13T10:50:23;20.97;55.04
77056;SHT30;67471;44.918;8.614;2023-05-13T10:53:30;21.06;54.73
77056;SHT30;67471;44.918;8.614;2023-05-13T10:56:37;20.83;54.81
77056;SHT30;67471;44.918;8.614;2023-05-13T11:00:10;21.06;55.17
77056;SHT30;67471;44.918;8.614;2023-05-13T11:03:26;21.36;54.93
77056;SHT30;67471;44.918;8.614;2023-05-13T11:06:35;21.46;54.51
77056;SHT30;67471;44.918;8.614;2023-05-13T11:09:39;21.46;54.88
77056;SHT30;67471;44.918;8.614;2023-05-13T11:16:19;21.88;52.81
77056;SHT30;67471;44.918;8.614;2023-05-13T11:19:28;22.23;52.29
77056;SHT30;67471;44.918;8.614;2023-05-13T11:22:35;22.70;51.16
77056;SHT30;67471;44.918;8.614;2023-05-13T11:25:42;22.90;50.26
77056;SHT30;67471;44.918;8.614;2023-05-13T11:29:01;22.87;50.43
77056;SHT30;67471;44.918;8.614;2023-05-13T11:32:06;22.67;50.42
77056;SHT30;67471;44.918;8.614;2023-05-13T11:35:09;22.73;49.78
77056;SHT30;67471;44.918;8.614;2023-05-13T11:38:21;22.43;49.97
77056;SHT30;67471;44.918;8.614;2023-05-13T11:41:32;22.43;50.19
77056;SHT30;67471;44.918;8.614;2023-05-13T11:44:44;22.60;48.71
77056;SHT30;67471;44.918;8.614;2023-05-13T11:47:49;22.91;50.37
77056;SHT30;67471;44.918;8.614;2023-05-13T11:50:56;23.04;50.71
77056;SHT30;67471;44.918;8.614;2023-05-13T11:54:00;23.21;49.52
77056;SHT30;67471;44.918;8.614;2023-05-13T12:00:28;23.59;48.44
77056;SHT30;67471;44.918;8.614;2023-05-13T12:03:32;23.58;47.10
77056;SHT30;67471;44.918;8.614;2023-05-13T12:06:42;23.66;47.38
77056;SHT30;67471;44.918;8.614;2023-05-13T12:09:51;23.37;47.56
77056;SHT30;67471;44.918;8.614;2023-05-13T12:12:57;23.58;47.36
77056;SHT30;67471;44.918;8.614;2023-05-13T12:16:02;23.75;46.80
77056;SHT30;67471;44.918;8.614;2023-05-13T12:19:06;23.29;48.01
77056;SHT30;67471;44.918;8.614;2023-05-13T12:22:10;22.98;49.40
77056;SHT30;67471;44.918;8.614;2023-05-13T12:25:40;22.53;49.38
77056;SHT30;67471;44.918;8.614;2023-05-13T12:28:44;22.53;50.71
77056;SHT30;67471;44.918;8.614;2023-05-13T12:32:17;22.35;51.15
77056;SHT30;67471;44.918;8.614;2023-05-13T12:35:21;22.50;51.27
77056;SHT30;67471;44.918;8.614;2023-05-13T12:38:26;22.56;50.85
77056;SHT30;67471;44.918;8.614;2023-05-13T12:41:31;22.20;52.09
77056;SHT30;67471;44.918;8.614;2023-05-13T12:44:35;22.28;51.35
77056;SHT30;67471;44.918;8.614;2023-05-13T12:47:48;22.22;51.51
77056;SHT30;67471;44.918;8.614;2023-05-13T12:50:51;22.12;51.31
77056;SHT30;67471;44.918;8.614;2023-05-13T12:53:56;21.97;50.85
77056;SHT30;67471;44.918;8.614;2023-05-13T12:57:00;22.25;51.18
77056;SHT30;67471;44.918;8.614;2023-05-13T13:00:10;22.67;49.34
77056;SHT30;67471;44.918;8.614;2023-05-13T13:03:15;23.07;48.82
77056;SHT30;67471;44.918;8.614;2023-05-13T13:06:18;23.22;47.19
77056;SHT30;67471;44.918;8.614;2023-05-13T13:09:25;23.38;46.75
77056;SHT30;67471;44.918;8.614;2023-05-13T13:12:29;23.52;46.50
77056;SHT30;67471;44.918;8.614;2023-05-13T13:15:36;23.92;46.08
77056;SHT30;67471;44.918;8.614;2023-05-13T13:18:41;24.16;46.01
77056;SHT30;67471;44.918;8.614;2023-05-13T13:21:44;24.17;47.51
77056;SHT30;67471;44.918;8.614;2023-05-13T13:24:48;24.00;47.97
77056;SHT30;67471;44.918;8.614;2023-05-13T13:27:52;23.85;47.18
77056;SHT30;67471;44.918;8.614;2023-05-13T13:30:56;23.41;47.77
77056;SHT30;67471;44.918;8.614;2023-05-13T13:34:01;23.25;48.40
77056;SHT30;67471;44.918;8.614;2023-05-13T13:37:10;23.08;48.40
77056;SHT30;67471;44.918;8.614;2023-05-13T13:40:14;23.27;47.91
77056;SHT30;67471;44.918;8.614;2023-05-13T13:43:18;23.39;48.42
77056;SHT30;67471;44.918;8.614;2023-05-13T13:46:24;23.08;48.49
77056;SHT30;67471;44.918;8.614;2023-05-13T13:49:28;23.32;47.63
77056;SHT30;67471;44.918;8.614;2023-05-13T13:52:32;23.49;46.88
77056;SHT30;67471;44.918;8.614;2023-05-13T13:55:36;23.56;46.01
77056;SHT30;67471;44.918;8.614;2023-05-13T13:58:39;23.24;45.54
77056;SHT30;67471;44.918;8.614;2023-05-13T14:01:44;23.34;45.40
77056;SHT30;67471;44.918;8.614;2023-05-13T14:04:50;23.37;43.60
77056;SHT30;67471;44.918;8.614;2023-05-13T14:07:54;23.58;44.23
77056;SHT30;67471;44.918;8.614;2023-05-13T14:10:58;23.62;44.65
77056;SHT30;67471;44.918;8.614;2023-05-13T14:14:02;23.93;44.51
77056;SHT30;67471;44.918;8.614;2023-05-13T14:17:06;23.83;46.19
77056;SHT30;67471;44.918;8.614;2023-05-13T14:20:09;23.95;46.20
77056;SHT30;67471;44.918;8.614;2023-05-13T14:23:17;24.18;45.20
77056;SHT30;67471;44.918;8.614;2023-05-13T14:26:20;24.33;45.02
77056;SHT30;67471;44.918;8.614;2023-05-13T14:29:27;24.64;44.48
77056;SHT30;67471;44.918;8.614;2023-05-13T14:32:31;24.74;44.72
77056;SHT30;67471;44.918;8.614;2023-05-13T14:35:35;24.09;43.78
77056;SHT30;67471;44.918;8.614;2023-05-13T14:38:39;23.49;43.81
77056;SHT30;67471;44.918;8.614;2023-05-13T14:41:44;23.22;45.17
77056;SHT30;67471;44.918;8.614;2023-05-13T14:44:48;23.24;44.31
77056;SHT30;67471;44.918;8.614;2023-05-13T14:47:53;22.94;44.69
77056;SHT30;67471;44.918;8.614;2023-05-13T14:50:57;22.84;45.17
77056;SHT30;67471;44.918;8.614;2023-05-13T14:54:01;22.66;45.90
77056;SHT30;67471;44.918;8.614;2023-05-13T14:57:08;22.52;46.68
77056;SHT30;67471;44.918;8.614;2023-05-13T15:00:12;21.82;48.05
77056;SHT30;67471;44.918;8.614;2023-05-13T15:03:16;21.77;48.15
77056;SHT30;67471;44.918;8.614;2023-05-13T15:06:21;21.92;47.81
77056;SHT30;67471;44.918;8.614;2023-05-13T15:09:25;21.71;47.96
77056;SHT30;67471;44.918;8.614;2023-05-13T15:12:31;21.89;46.95
77056;SHT30;67471;44.918;8.614;2023-05-13T15:15:35;21.92;46.53
77056;SHT30;67471;44.918;8.614;2023-05-13T15:18:39;21.68;46.83
77056;SHT30;67471;44.918;8.614;2023-05-13T15:21:43;21.31;47.50
77056;SHT30;67471;44.918;8.614;2023-05-13T15:24:47;21.23;47.59
77056;SHT30;67471;44.918;8.614;2023-05-13T15:27:50;20.85;51.18
77056;SHT30;67471;44.918;8.614;2023-05-13T15:30:54;20.72;52.31
77056;SHT30;67471;44.918;8.614;2023-05-13T15:34:01;20.95;51.58
77056;SHT30;67471;44.918;8.614;2023-05-13T15:37:05;21.07;51.01
77056;SHT30;67471;44.918;8.614;2023-05-13T15:40:13;21.16;50.52
77056;SHT30;67471;44.918;8.614;2023-05-13T15:43:17;20.45;52.27
77056;SHT30;67471;44.918;8.614;2023-05-13T15:46:21;20.58;52.61
77056;SHT30;67471;44.918;8.614;2023-05-13T15:49:28;20.52;53.08
77056;SHT30;67471;44.918;8.614;2023-05-13T15:52:36;20.41;52.95
77056;SHT30;67471;44.918;8.614;2023-05-13T15:55:42;20.42;52.02
77056;SHT30;67471;44.918;8.614;2023-05-13T15:58:49;20.62;51.51
77056;SHT30;67471;44.918;8.614;2023-05-13T16:01:53;20.85;50.16
77056;SHT30;67471;44.918;8.614;2023-05-13T16:04:57;21.10;48.70
77056;SHT30;67471;44.918;8.614;2023-05-13T16:08:01;20.48;49.31
77056;SHT30;67471;44.918;8.614;2023-05-13T16:11:05;20.44;49.07
77056;SHT30;67471;44.918;8.614;2023-05-13T16:14:09;20.44;47.44
77056;SHT30;67471;44.918;8.614;2023-05-13T16:17:13;20.32;49.44
77056;SHT30;67471;44.918;8.614;2023-05-13T16:20:20;20.52;48.07
77056;SHT30;67471;44.918;8.614;2023-05-13T16:23:24;20.13;51.15
77056;SHT30;67471;44.918;8.614;2023-05-13T16:26:28;20.07;49.96
77056;SHT30;67471;44.918;8.614;2023-05-13T16:29:31;20.29;50.11
77056;SHT30;67471;44.918;8.614;2023-05-13T16:32:35;20.18;51.52
77056;SHT30;67471;44.918;8.614;2023-05-13T16:35:39;20.04;51.84
77056;SHT30;67471;44.918;8.614;2023-05-13T16:38:43;19.96;52.96
77056;SHT30;67471;44.918;8.614;2023-05-13T16:41:49;19.55;52.10
77056;SHT30;67471;44.918;8.614;2023-05-13T16:44:53;19.32;51.76
77056;SHT30;67471;44.918;8.614;2023-05-13T16:47:56;19.18;51.92
77056;SHT30;67471;44.918;8.614;2023-05-13T16:51:00;19.50;51.13
77056;SHT30;67471;44.918;8.614;2023-05-13T16:54:05;19.38;51.49
77056;SHT30;67471;44.918;8.614;2023-05-13T16:57:08;19.60;51.00
77056;SHT30;67471;44.918;8.614;2023-05-13T17:00:12;19.33;51.24
77056;SHT30;67471;44.918;8.614;2023-05-13T17:03:17;19.19;51.69
77056;SHT30;67471;44.918;8.614;2023-05-13T17:06:21;19.23;52.29
77056;SHT30;67471;44.918;8.614;2023-05-13T17:09:28;18.84;53.62
77056;SHT30;67471;44.918;8.614;2023-05-13T17:12:33;18.75;53.93
77056;SHT30;67471;44.918;8.614;2023-05-13T17:15:37;18.87;53.41
77056;SHT30;67471;44.918;8.614;2023-05-13T17:18:44;18.89;53.54
77056;SHT30;67471;44.918;8.614;2023-05-13T17:21:47;19.04;53.50
77056;SHT30;67471;44.918;8.614;2023-05-13T17:24:51;19.08;53.56
77056;SHT30;67471;44.918;8.614;2023-05-13T17:27:55;19.04;53.90
77056;SHT30;67471;44.918;8.614;2023-05-13T17:31:00;18.91;54.64
77056;SHT30;67471;44.918;8.614;2023-05-13T17:34:06;19.04;54.92
77056;SHT30;67471;44.918;8.614;2023-05-13T17:37:10;18.95;54.77
77056;SHT30;67471;44.918;8.614;2023-05-13T17:40:19;18.89;55.88
77056;SHT30;67471;44.918;8.614;2023-05-13T17:43:29;18.94;56.22
77056;SHT30;67471;44.918;8.614;2023-05-13T17:46:36;18.95;56.48
77056;SHT30;67471;44.918;8.614;2023-05-13T17:49:43;19.15;55.65
77056;SHT30;67471;44.918;8.614;2023-05-13T17:52:50;19.02;55.33
77056;SHT30;67471;44.918;8.614;2023-05-13T17:55:53;19.01;54.25
77056;SHT30;67471;44.918;8.614;2023-05-13T17:58:57;19.02;53.43
77056;SHT30;67471;44.918;8.614;2023-05-13T18:02:01;19.15;54.28
77056;SHT30;67471;44.918;8.614;2023-05-13T18:05:06;18.97;53.94
77056;SHT30;67471;44.918;8.614;2023-05-13T18:08:13;18.77;54.75
77056;SHT30;67471;44.918;8.614;2023-05-13T18:11:17;18.98;54.51
77056;SHT30;67471;44.918;8.614;2023-05-13T18:14:21;19.20;54.59
77056;SHT30;67471;44.918;8.614;2023-05-13T18:17:30;19.22;54.69
77056;SHT30;67471;44.918;8.614;2023-05-13T18:20:40;19.09;54.96
77056;SHT30;67471;44.918;8.614;2023-05-13T18:23:44;19.09;54.58
77056;SHT30;67471;44.918;8.614;2023-05-13T18:26:48;18.94;54.31
77056;SHT30;67471;44.918;8.614;2023-05-13T18:29:54;18.85;54.68
77056;SHT30;67471;44.918;8.614;2023-05-13T18:32:58;18.85;54.40
77056;SHT30;67471;44.918;8.614;2023-05-13T18:36:02;18.71;54.79
77056;SHT30;67471;44.918;8.614;2023-05-13T18:39:09;18.84;55.66
77056;SHT30;67471;44.918;8.614;2023-05-13T18:42:16;18.65;55.82
77056;SHT30;67471;44.918;8.614;2023-05-13T18:45:23;18.51;56.42
77056;SHT30;67471;44.918;8.614;2023-05-13T18:48:27;18.51;56.00
77056;SHT30;67471;44.918;8.614;2023-05-13T18:51:37;18.51;53.50
77056;SHT30;67471;44.918;8.614;2023-05-13T18:54:40;18.44;54.48
77056;SHT30;67471;44.918;8.614;2023-05-13T18:57:45;18.09;55.32
77056;SHT30;67471;44.918;8.614;2023-05-13T19:00:52;17.85;57.16
77056;SHT30;67471;44.918;8.614;2023-05-13T19:03:55;17.68;58.16
77056;SHT30;67471;44.918;8.614;2023-05-13T19:07:02;17.89;57.74
77056;SHT30;67471;44.918;8.614;2023-05-13T19:10:06;18.06;57.48
77056;SHT30;67471;44.918;8.614;2023-05-13T19:13:10;18.00;57.89
77056;SHT30;67471;44.918;8.614;2023-05-13T19:16:14;18.16;58.02
77056;SHT30;67471;44.918;8.614;2023-05-13T19:19:18;18.23;58.21
77056;SHT30;67471;44.918;8.614;2023-05-13T19:22:21;18.09;58.90
77056;SHT30;67471;44.918;8.614;2023-05-13T19:25:28;17.86;59.71
77056;SHT30;67471;44.918;8.614;2023-05-13T19:28:32;17.86;59.82
77056;SHT30;67471;44.918;8.614;2023-05-13T19:31:36;17.90;59.51
77056;SHT30;67471;44.918;8.614;2023-05-13T19:34:45;17.88;59.60
77056;SHT30;67471;44.918;8.614;2023-05-13T19:37:52;17.72;59.37
77056;SHT30;67471;44.918;8.614;2023-05-13T19:41:04;17.62;58.92
77056;SHT30;67471;44.918;8.614;2023-05-13T19:44:08;17.52;59.40
77056;SHT30;67471;44.918;8.614;2023-05-13T19:47:12;17.65;59.42
77056;SHT30;67471;44.918;8.614;2023-05-13T19:50:16;17.57;60.16
77056;SHT30;67471;44.918;8.614;2023-05-13T19:53:20;17.47;59.82
77056;SHT30;67471;44.918;8.614;2023-05-13T19:56:27;17.50;59.39